Hallett, OK (74034)

7:24 AM CDT on August 20, 2014 (GMT -0500)
PAWNEE | Change Station
CLOSE
Current Station
Personal Weather Station
Location: Jennings, OK
Elevation: 925 ft
Nearby Weather Stations

Elev 925 ft 36.24 °N, 96.60 °W | Updated 3 seconds ago

Scattered Clouds
Scattered Clouds
75.6 °F
Feels Like 77 °F
N
2.2
Wind Variable Wind from SE
Gusts 5.4 mph

Today
High -- | Low -- °F
--% Chance of Precip.
Yesterday
High -- | Low -- °F
Precip. -- in
6:48 AM 8:10 PM
Waning Crescent, 22% visible
Pressure 29.91 in
Visibility 10.0 miles
Clouds Scattered Clouds 6500 ft
Heat Index 77 °F
Dew Point 64 °F
Humidity 68%
Rainfall 0.00 in
Snow Depth Not available.
UV 0 out of 12
Pollen 9.10 out of 12
Air Quality Not available.
Flu Activity Not available.
METAR KOWP 201215Z AUTO 18004KT 10SM SCT065 25/20 A2991 RMK AO2 T02520204

More Conditions Fewer Conditions

Pressure 29.91 in
Visibility 10.0 miles
Clouds Scattered Clouds 6500 ft
Heat Index 77 °F
Dew Point 64 °F
Humidity 68%
Rainfall 0.00 in
Snow Depth Not available.
UV 0 out of 12
Pollen 9.10 out of 12
Air Quality Not available.
Flu Activity Not available.
METAR KOWP 201215Z AUTO 18004KT 10SM SCT065 25/20 A2991 RMK AO2 T02520204

More Conditions Fewer Conditions

Nowcast | as of 6:11 am CDT on August 20, 2014

At 6:11 am...Doppler radars detected scattered showers over portions of southeast and south-central Oklahoma. This activity was lifting northeast at around 20 mph. Through 8 am...occasional light showers will be possible for locations across eastern Oklahoma...along and west of an Okmulgee to Albion line. Average hourly rainfall with this activity will vary from a trace to around one tenth of an inch.

×

10-Day Weather Forecast

Almanac

Astronomy

Aug. 20, 2014 Rise Set
Actual Time 6:48 AM CDT 8:10 PM CDT
Civil Twilight 6:21 AM CDT 8:37 PM CDT
Nautical Twilight 5:49 AM CDT 9:09 PM CDT
Astronomical Twilight 5:15 AM CDT 9:42 PM CDT
Moon 2:32 AM CDT 4:53 PM CDT
Length of Visible Light 14h 15m
Length of Day
13h 21m
Tomorrow will be 2m 5s shorter.
Waning Crescent, 22% of the Moon is Illuminated
Today
Waning Crescent
Aug 25
New
Sep 2
First Quarter
Sep 8
Full
Sep 15
Last Quarter

Today's Extremes

State Highs State Lows

Community

WunderPhotos

Upload Photos

1,745,617 photos uploaded!

WunderBlogs® & News

By Dr. Jeff Masters
Director of Meteorology, Weather Underground
By Kari Strenfel
Meteorologist, Weather Underground
By Christopher C. Burt
Weather Historian, Weather Underground
August 20, 2014
August 20, 2014
August 20, 2014

Nearby

Snow Depth

Station Depth Elevation
No new snow has been reported.

Earthquake Activity

City Distance Mag. Time & Date
Medford, Oklahoma 82 miles 3.4 5:54 AM CDT
2014-08-16
Medford, Oklahoma 76 miles 2.5 7:09 AM CDT
2014-08-15
Langston, Oklahoma 41 miles 2.9 9:49 PM CDT
2014-08-14
Perry, Oklahoma 32 miles 2.7 6:20 PM CDT
2014-08-14
Minimum magnitude displayed is 2.5.

Coastal Water Temperatures

Place Temperature
No Stations Reporting

Nearby Weather Stations